Time;durP1;ratioP1;P1;durP2;ratioP2;P2;SDS_P1;SDS_P2;PMS_P1;PMS_P2;Temp;Humidity;BMP_temperature;BMP_pressure;BME280_temperature;BME280_humidity;BME280_pressure;Samples;Min_cycle;Max_cycle;Signal;HPM_P1;HPM_P2
2022/08/17 00:00:24;;;;;;;10.93;8.25;;;;;;;24.94;55.01;99514.63;5127572;28;19922;-31
2022/08/17 00:03:01;;;;;;;13.00;8.60;;;;;;;25.11;55.26;99516.44;5126558;28;20045;-29
2022/08/17 00:05:29;;;;;;;9.05;7.00;;;;;;;25.14;56.14;99516.59;5126243;27;20038;-29
2022/08/17 00:07:54;;;;;;;;;;;;;;;24.88;55.75;99524.91;5129529;27;20054;-34
2022/08/17 00:10:20;;;;;;;10.80;8.25;;;;;;;24.60;55.31;99505.44;5130851;27;19977;-32
2022/08/17 00:12:45;;;;;;;12.77;8.00;;;;;;;24.47;56.66;99518.94;5129846;27;20031;-30
2022/08/17 00:15:13;;;;;;;14.50;8.20;;;;;;;24.40;56.15;99518.63;5131067;27;20030;-29
2022/08/17 00:17:40;;;;;;;11.57;8.30;;;;;;;24.20;56.55;99508.44;5129738;27;20038;-30
2022/08/17 00:20:06;;;;;;;;;;;;;;;24.26;56.70;99534.38;5131483;27;20046;-29
2022/08/17 00:22:31;;;;;;;10.60;8.68;;;;;;;24.15;56.23;99511.31;5129430;27;19911;-30
2022/08/17 00:24:57;;;;;;;10.57;8.40;;;;;;;24.12;57.37;99522.88;5130728;27;20394;-28
2022/08/17 00:27:22;;;;;;;11.43;7.95;;;;;;;24.35;57.01;99516.06;5129432;27;20035;-29
2022/08/17 00:29:48;;;;;;;11.05;6.95;;;;;;;24.54;55.94;99523.09;5129518;27;20030;-28
2022/08/17 00:32:14;;;;;;;10.60;7.65;;;;;;;24.35;57.86;99505.16;5130769;27;20972;-32
2022/08/17 00:34:39;;;;;;;9.75;7.85;;;;;;;24.44;57.64;99530.50;5129284;27;20031;-30
2022/08/17 00:37:05;;;;;;;10.00;8.02;;;;;;;24.49;57.38;99510.44;5130702;27;20073;-28
2022/08/17 00:39:31;;;;;;;11.75;7.93;;;;;;;24.83;56.82;99508.75;5130659;27;20027;-28
2022/08/17 00:41:56;;;;;;;10.18;7.78;;;;;;;24.62;56.87;99517.66;5130749;27;20437;-29
2022/08/17 00:44:21;;;;;;;12.48;8.77;;;;;;;24.42;57.45;99500.03;5130530;27;20019;-28
2022/08/17 00:46:47;;;;;;;15.65;9.98;;;;;;;24.24;57.44;99493.81;5130290;27;20418;-29
2022/08/17 00:49:14;;;;;;;14.07;9.38;;;;;;;24.58;57.62;99497.63;5130407;27;20106;-31
2022/08/17 00:51:47;;;;;;;10.65;8.27;;;;;;;24.56;56.96;99494.41;5130378;27;20130;-30
2022/08/17 00:54:14;;;;;;;12.95;8.80;;;;;;;24.39;56.73;99513.50;5128575;27;20151;-29
2022/08/17 00:56:46;;;;;;;12.93;8.70;;;;;;;24.19;58.83;99485.00;5128631;27;20471;-31
2022/08/17 00:59:18;;;;;;;12.68;8.48;;;;;;;24.31;57.15;99482.41;5128799;27;20034;-30
2022/08/17 01:01:44;;;;;;;12.98;8.65;;;;;;;24.34;57.88;99487.25;5128830;27;20022;-33
2022/08/17 01:04:11;;;;;;;13.13;8.90;;;;;;;24.31;57.61;99500.69;5130081;27;20499;-28
2022/08/17 01:06:40;;;;;;;12.90;9.23;;;;;;;24.45;58.60;99510.28;5129783;27;20031;-32
2022/08/17 01:09:07;;;;;;;14.00;8.18;;;;;;;24.10;58.92;99500.59;5128669;27;20038;-32
2022/08/17 01:11:36;;;;;;;12.03;8.73;;;;;;;23.83;59.35;99510.72;5128686;27;20042;-28
2022/08/17 01:14:02;;;;;;;12.23;8.00;;;;;;;23.85;58.90;99524.81;5128590;27;20273;-28
2022/08/17 01:16:30;;;;;;;13.07;8.73;;;;;;;23.69;59.75;99515.50;5128417;27;20031;-28
2022/08/17 01:18:59;;;;;;;11.77;8.80;;;;;;;23.64;60.01;99541.75;5128121;27;20425;-32
2022/08/17 01:21:46;;;;;;;11.70;9.40;;;;;;;23.20;62.09;99529.97;5128575;27;20205;-28
2022/08/17 01:24:12;;;;;;;11.80;9.07;;;;;;;23.08;61.98;99535.22;5128484;27;20053;-29
2022/08/17 01:26:39;;;;;;;11.77;8.80;;;;;;;23.00;62.51;99530.53;5129709;27;20410;-29
2022/08/17 01:29:05;;;;;;;12.70;9.18;;;;;;;22.66;63.70;99523.84;5128318;27;20024;-30
2022/08/17 01:31:38;;;;;;;13.88;9.30;;;;;;;22.64;64.69;99526.88;5127955;27;20034;-30
2022/08/17 01:34:07;;;;;;;11.82;9.00;;;;;;;22.86;64.64;99525.19;5129543;27;20023;-29
2022/08/17 01:36:34;;;;;;;15.60;10.55;;;;;;;23.16;63.20;99520.84;5127824;27;20487;-30
2022/08/17 01:39:00;;;;;;;12.10;8.83;;;;;;;23.26;62.49;99511.59;5128191;27;20043;-28
2022/08/17 01:41:27;;;;;;;13.30;8.93;;;;;;;23.38;62.93;99500.88;5129544;27;20280;-33
2022/08/17 01:44:00;;;;;;;14.20;9.02;;;;;;;23.25;61.72;99513.50;5127787;27;20057;-28
2022/08/17 01:46:29;;;;;;;12.05;9.18;;;;;;;23.11;62.29;99488.38;5128808;27;20151;-30
2022/08/17 01:48:56;;;;;;;11.43;8.20;;;;;;;23.00;63.00;99511.50;5127714;27;20517;-33
2022/08/17 01:51:24;;;;;;;12.93;9.07;;;;;;;23.16;63.25;99504.53;5129053;27;20054;-34
2022/08/17 01:53:56;;;;;;;12.50;8.60;;;;;;;23.84;60.32;99493.25;5127547;27;20481;-33
2022/08/17 01:56:23;;;;;;;11.63;9.30;;;;;;;23.98;59.71;99499.31;5127037;27;20113;-33
2022/08/17 01:58:49;;;;;;;11.52;8.20;;;;;;;23.39;61.00;99501.69;5128761;27;20516;-29
2022/08/17 02:01:16;;;;;;;13.50;9.35;;;;;;;23.10;61.90;99500.34;5129001;27;20039;-28
2022/08/17 02:03:42;;;;;;;11.77;8.50;;;;;;;23.06;61.07;99510.25;5127595;27;20493;-31
2022/08/17 02:06:08;;;;;;;12.10;9.25;;;;;;;22.85;62.61;99505.38;5128793;27;20027;-28
2022/08/17 02:08:34;;;;;;;12.32;8.40;;;;;;;22.70;63.18;99486.78;5127277;27;20449;-28
2022/08/17 02:11:06;;;;;;;12.15;8.35;;;;;;;23.16;62.12;99488.19;5126942;27;20031;-29
2022/08/17 02:13:32;;;;;;;10.77;8.23;;;;;;;23.33;61.12;99481.97;5127297;27;20122;-30
2022/08/17 02:15:58;;;;;;;11.95;8.07;;;;;;;23.62;60.80;99473.22;5128601;27;20106;-30
2022/08/17 02:18:24;;;;;;;11.48;7.93;;;;;;;24.02;58.96;99500.25;5126698;27;20042;-28
2022/08/17 02:20:51;;;;;;;9.25;7.53;;;;;;;23.60;60.09;99477.34;5127021;27;20031;-30
2022/08/17 02:23:17;;;;;;;11.27;8.02;;;;;;;23.57;59.82;99506.03;5126818;27;20033;-29
2022/08/17 02:25:48;;;;;;;11.50;8.07;;;;;;;24.01;58.05;99493.22;5126529;27;20414;-30
2022/08/17 02:28:16;;;;;;;11.57;8.05;;;;;;;24.14;57.88;99498.81;5126887;27;20539;-28
2022/08/17 02:30:41;;;;;;;11.10;8.18;;;;;;;24.26;57.43;99483.41;5125898;27;20027;-28
2022/08/17 02:33:07;;;;;;;10.48;8.40;;;;;;;23.41;58.96;99478.47;5128053;27;20441;-28
2022/08/17 02:35:34;;;;;;;12.20;8.90;;;;;;;22.99;60.87;99493.59;5128137;27;20026;-29
2022/08/17 02:38:00;;;;;;;14.07;8.80;;;;;;;22.78;61.67;99502.31;5126541;27;20088;-29
2022/08/17 02:40:26;;;;;;;13.18;8.82;;;;;;;22.36;62.57;99477.34;5127572;27;20023;-32
2022/08/17 02:42:52;;;;;;;12.38;8.88;;;;;;;22.17;63.37;99501.13;5128120;27;20407;-28
2022/08/17 02:45:21;;;;;;;11.43;9.10;;;;;;;22.29;63.53;99495.97;5127508;27;20054;-30
2022/08/17 02:47:47;;;;;;;12.18;8.68;;;;;;;22.32;62.38;99487.22;5127984;27;20042;-28
2022/08/17 02:50:16;;;;;;;11.57;8.57;;;;;;;22.07;63.71;99478.56;5127829;27;20051;-29
2022/08/17 02:52:43;;;;;;;;;;;;;;;22.06;63.58;99490.53;5126806;27;20035;-29
2022/08/17 02:55:28;;;;;;;11.02;8.90;;;;;;;21.87;64.25;99492.66;5126040;27;19983;-29
2022/08/17 02:57:54;;;;;;;12.60;8.85;;;;;;;21.57;64.98;99475.97;5127880;27;20041;-29
2022/08/17 03:00:28;;;;;;;13.15;9.90;;;;;;;21.49;65.13;99476.69;5125978;27;20038;-30
2022/08/17 03:02:55;;;;;;;15.63;8.90;;;;;;;21.17;66.97;99492.00;5126262;28;20451;-28
2022/08/17 03:05:23;;;;;;;10.90;8.80;;;;;;;20.80;69.02;99501.97;5109003;27;20027;-30
2022/08/17 03:07:49;;;;;;;13.10;9.52;;;;;;;20.60;69.59;99499.63;5126170;28;20036;-31
2022/08/17 03:10:16;;;;;;;10.82;8.90;;;;;;;20.48;70.35;99503.59;5126010;28;20110;-28
2022/08/17 03:12:42;;;;;;;14.57;9.45;;;;;;;20.26;72.42;99506.16;5125927;28;20457;-28
2022/08/17 03:15:13;;;;;;;12.65;9.65;;;;;;;20.34;72.38;99508.19;5125917;27;20134;-32
2022/08/17 03:17:39;;;;;;;11.90;9.50;;;;;;;20.25;71.28;99494.53;5126268;27;20042;-28
2022/08/17 03:20:06;;;;;;;15.73;9.13;;;;;;;20.46;70.66;99505.78;5125938;28;20028;-32
2022/08/17 03:22:36;;;;;;;12.98;8.73;;;;;;;20.73;69.63;99508.88;5126234;27;20038;-31
2022/08/17 03:25:03;;;;;;;20.60;9.48;;;;;;;21.05;69.02;99495.22;5126298;28;20031;-31
2022/08/17 03:27:28;;;;;;;13.45;9.15;;;;;;;21.76;66.70;99502.13;5127263;27;20038;-31
2022/08/17 03:29:54;;;;;;;12.73;8.70;;;;;;;22.41;64.00;99509.81;5127665;27;20020;-29
2022/08/17 03:32:19;;;;;;;13.88;8.85;;;;;;;21.90;63.89;99519.16;5127297;27;20403;-36
2022/08/17 03:34:45;;;;;;;13.80;8.75;;;;;;;22.42;63.92;99505.97;5127280;27;20411;-28
2022/08/17 03:37:11;;;;;;;12.68;8.93;;;;;;;22.51;63.25;99519.59;5127441;27;20410;-29
2022/08/17 03:39:37;;;;;;;13.30;8.85;;;;;;;22.14;63.03;99518.06;5127509;27;20808;-29
2022/08/17 03:42:21;;;;;;;13.88;8.98;;;;;;;21.84;64.49;99521.22;5130657;27;20035;-29
2022/08/17 03:44:55;;;;;;;12.88;8.18;;;;;;;22.14;63.81;99518.06;5129650;27;20020;-28
2022/08/17 03:58:20;;;;;;;11.52;8.45;;;;;;;23.22;59.74;99525.00;5130834;27;20171;-28
2022/08/17 04:00:46;;;;;;;12.10;8.20;;;;;;;23.49;58.95;99542.19;5130984;27;20121;-28
2022/08/17 04:03:12;;;;;;;13.95;9.10;;;;;;;23.57;58.81;99546.06;5129609;27;20414;-28
2022/08/17 04:05:39;;;;;;;13.45;8.18;;;;;;;23.74;58.26;99539.81;5129432;27;20851;-31
2022/08/17 04:08:05;;;;;;;12.82;9.00;;;;;;;23.66;58.09;99539.50;5129154;27;20521;-33
2022/08/17 04:10:30;;;;;;;14.45;9.00;;;;;;;23.67;58.29;99538.38;5129409;27;20047;-28
2022/08/17 04:12:57;;;;;;;12.57;9.50;;;;;;;23.44;58.36;99526.81;5130966;27;20027;-28
2022/08/17 04:15:23;;;;;;;14.90;8.93;;;;;;;23.71;57.87;99548.63;5130836;27;20117;-32
2022/08/17 04:17:48;;;;;;;13.27;9.18;;;;;;;24.06;56.95;99536.63;5130654;27;20132;-28
2022/08/17 04:20:17;;;;;;;12.50;9.95;;;;;;;23.67;58.19;99557.41;5130790;27;20020;-29
2022/08/17 04:23:03;;;;;;;15.35;9.50;;;;;;;22.90;60.24;99549.84;5130762;27;20107;-30
2022/08/17 04:25:32;;;;;;;14.73;9.57;;;;;;;22.90;60.27;99555.28;5129230;27;20026;-28
2022/08/17 04:27:59;;;;;;;12.02;9.57;;;;;;;22.76;60.79;99544.50;5130346;27;20039;-29
2022/08/17 04:30:28;;;;;;;13.18;9.93;;;;;;;22.89;60.68;99559.13;5128894;27;20027;-30
2022/08/17 04:33:01;;;;;;;13.35;9.40;;;;;;;22.99;60.23;99569.72;5128773;27;20033;-28
2022/08/17 04:35:29;;;;;;;16.60;9.35;;;;;;;23.64;57.99;99563.53;5130692;27;20031;-28
2022/08/17 04:37:55;;;;;;;12.55;9.02;;;;;;;23.80;57.68;99571.25;5128941;27;20434;-32
2022/08/17 04:43:09;;;;;;;13.98;9.23;;;;;;;23.79;57.96;99577.81;5130397;27;20025;-30
2022/08/17 04:45:44;;;;;;;13.50;9.25;;;;;;;24.09;57.50;99577.97;5128363;27;20471;-33
2022/08/17 04:48:09;;;;;;;15.95;10.32;;;;;;;23.94;58.03;99581.97;5111674;27;20031;-29
2022/08/17 04:50:43;;;;;;;12.98;9.55;;;;;;;24.26;56.94;99577.97;5130034;27;20403;-28
2022/08/17 04:53:10;;;;;;;10.48;9.10;;;;;;;23.61;58.91;99577.75;5129216;27;20214;-29
2022/08/17 04:55:35;;;;;;;12.30;8.93;;;;;;;23.63;59.14;99574.72;5128802;27;20027;-31
2022/08/17 04:58:01;;;;;;;12.40;8.05;;;;;;;24.08;57.77;99590.78;5129602;27;20094;-29
2022/08/17 05:00:26;;;;;;;11.70;8.68;;;;;;;24.33;57.11;99574.75;5129747;27;20106;-29
2022/08/17 05:02:54;;;;;;;13.30;9.57;;;;;;;24.18;57.43;99557.00;5129758;27;20026;-30
2022/08/17 05:05:32;;;;;;;13.55;8.98;;;;;;;24.42;57.49;99570.91;5128448;27;20031;-29
2022/08/17 05:08:00;;;;;;;13.10;9.20;;;;;;;24.27;57.87;99583.09;5127987;27;20568;-29
2022/08/17 05:10:27;;;;;;;;;;;;;;;24.05;57.78;99586.81;5129836;27;20830;-32
2022/08/17 05:13:05;;;;;;;12.93;9.63;;;;;;;23.80;59.16;99591.13;5129764;27;19908;-28
2022/08/17 05:15:30;;;;;;;12.55;9.20;;;;;;;23.66;59.34;99572.16;5111141;27;20024;-29
2022/08/17 05:17:56;;;;;;;13.98;8.77;;;;;;;23.69;60.00;99592.50;5128087;27;20031;-33
2022/08/17 05:20:22;;;;;;;13.90;9.27;;;;;;;23.67;60.13;99592.81;5129391;27;20027;-31
2022/08/17 05:22:53;;;;;;;13.00;9.27;;;;;;;23.52;61.01;99587.00;5129228;27;20039;-31
2022/08/17 05:25:28;;;;;;;11.77;9.07;;;;;;;23.60;60.54;99581.59;5127948;27;20114;-31
2022/08/17 05:27:54;;;;;;;13.13;10.07;;;;;;;23.63;60.60;99575.50;5129314;27;20023;-30
2022/08/17 05:30:20;;;;;;;12.27;9.45;;;;;;;23.74;60.67;99575.22;5128844;27;20049;-31
2022/08/17 05:32:54;;;;;;;14.07;9.88;;;;;;;23.95;60.19;99600.72;5127889;27;20088;-28
2022/08/17 05:35:20;;;;;;;12.82;9.55;;;;;;;23.94;60.16;99599.13;5127577;27;20038;-31
2022/08/17 05:37:46;;;;;;;13.80;10.00;;;;;;;24.09;60.42;99588.88;5127853;27;20208;-28
2022/08/17 05:40:12;;;;;;;11.68;8.55;;;;;;;24.33;59.36;99588.38;5129374;27;20418;-31
2022/08/17 05:42:38;;;;;;;11.27;8.80;;;;;;;24.60;59.19;99598.13;5129015;27;20031;-29
2022/08/17 05:45:04;;;;;;;16.77;10.57;;;;;;;24.63;59.51;99581.94;5127315;27;20035;-31
2022/08/17 05:47:30;;;;;;;15.15;11.05;;;;;;;24.82;59.40;99591.66;5127277;27;20097;-31
2022/08/17 05:49:56;;;;;;;10.85;8.40;;;;;;;24.95;59.21;99587.94;5128841;27;20106;-30
2022/08/17 05:53:00;;;;;;;13.55;7.80;;;;;;;25.19;58.03;99597.47;5128866;27;20023;-30
2022/08/17 05:55:49;;;;;;;10.70;7.88;;;;;;;25.18;57.81;99593.94;5124468;27;20729;-31
2022/08/17 05:58:33;;;;;;;13.27;8.18;;;;;;;25.33;58.05;99608.19;5128492;27;20062;-33
2022/08/17 06:01:24;;;;;;;12.63;6.88;;;;;;;25.57;57.91;99600.19;5128681;27;20104;-30
2022/08/17 06:04:09;;;;;;;11.10;7.15;;;;;;;25.76;56.19;99602.47;5126324;27;20091;-29
2022/08/17 06:06:54;;;;;;;10.07;6.70;;;;;;;25.81;55.56;99599.53;5126618;27;20786;-30
2022/08/17 06:09:46;;;;;;;8.77;6.40;;;;;;;25.95;54.92;99603.97;5127188;27;20031;-32
2022/08/17 06:12:53;;;;;;;10.40;6.90;;;;;;;26.24;53.88;99608.56;5128756;27;20752;-29
2022/08/17 06:15:25;;;;;;;10.73;6.75;;;;;;;26.23;53.97;99598.75;5116506;27;20027;-29
2022/08/17 06:17:58;;;;;;;11.77;6.60;;;;;;;26.45;54.20;99600.31;5126993;27;20035;-30
2022/08/17 06:20:29;;;;;;;9.95;6.72;;;;;;;26.45;53.66;99603.84;5126663;27;20023;-30
2022/08/17 06:23:02;;;;;;;10.32;6.45;;;;;;;26.53;53.70;99598.66;5126928;27;20475;-28
2022/08/17 06:25:37;;;;;;;10.35;6.93;;;;;;;26.57;53.94;99592.19;5128084;27;20031;-31
2022/08/17 06:28:13;;;;;;;9.70;6.22;;;;;;;26.83;52.49;99580.97;5126825;27;20031;-29
2022/08/17 06:31:05;;;;;;;11.00;6.88;;;;;;;27.02;52.97;99596.81;5126610;27;20050;-31
2022/08/17 06:33:34;;;;;;;10.95;6.45;;;;;;;26.75;52.69;99576.38;5126709;27;20137;-29
2022/08/17 06:36:29;;;;;;;12.07;6.60;;;;;;;27.10;51.82;99600.59;5126464;27;20123;-29
2022/08/17 06:39:20;;;;;;;8.88;6.22;;;;;;;27.27;51.88;99596.06;5098153;27;20525;-32
2022/08/17 06:41:52;;;;;;;9.93;5.72;;;;;;;27.41;51.00;99602.00;5127507;27;20144;-30
2022/08/17 06:44:36;;;;;;;9.88;6.38;;;;;;;27.62;50.67;99594.47;5127582;27;20035;-34
2022/08/17 06:47:35;;;;;;;9.27;6.00;;;;;;;27.88;50.00;99598.75;5127808;27;20051;-28
2022/08/17 06:50:14;;;;;;;9.95;5.90;;;;;;;27.88;48.74;99596.00;5111127;27;20129;-28
2022/08/17 06:52:56;;;;;;;13.27;6.20;;;;;;;27.90;49.03;99598.41;5127334;27;20031;-29
2022/08/17 06:55:45;;;;;;;11.10;6.25;;;;;;;27.94;48.20;99594.63;5126516;27;20494;-31
2022/08/17 06:58:22;;;;;;;7.72;5.38;;;;;;;27.96;46.61;99583.31;5117809;27;20031;-29
2022/08/17 07:00:50;;;;;;;11.48;5.82;;;;;;;28.01;47.03;99594.84;5119437;27;20413;-29
2022/08/17 07:03:37;;;;;;;8.05;5.43;;;;;;;27.73;47.67;99585.75;5118556;28;20030;-32
2022/08/17 07:06:05;;;;;;;8.52;5.47;;;;;;;27.91;47.11;99589.03;5110447;28;20024;-32
2022/08/17 07:08:40;;;;;;;10.45;5.82;;;;;;;28.17;47.32;99581.19;5108698;27;20028;-29
2022/08/17 07:12:08;;;;;;;10.18;5.47;;;;;;;28.60;45.09;99587.06;5106841;28;20028;-33
2022/08/17 07:14:38;;;;;;;10.90;5.95;;;;;;;28.97;45.93;99589.56;5021303;28;20118;-31
2022/08/17 07:17:12;;;;;;;8.73;5.80;;;;;;;29.13;44.62;99587.63;5109492;28;20110;-32
2022/08/17 07:19:40;;;;;;;11.70;5.40;;;;;;;29.07;43.50;99583.53;5111403;28;20031;-31
2022/08/17 07:22:14;;;;;;;8.80;5.40;;;;;;;28.72;44.56;99578.75;5110019;28;20108;-29
2022/08/17 07:24:51;;;;;;;9.05;5.65;;;;;;;28.62;44.79;99590.25;5110819;28;20376;-29
2022/08/17 07:27:26;;;;;;;9.80;5.57;;;;;;;28.60;44.71;99563.16;5109629;28;20039;-32
2022/08/17 07:29:57;;;;;;;10.15;5.68;;;;;;;28.90;44.62;99594.88;5109352;28;20027;-32
2022/08/17 07:32:30;;;;;;;8.82;5.28;;;;;;;29.05;44.34;99586.66;5109615;28;20522;-29
2022/08/17 07:35:07;;;;;;;12.48;5.90;;;;;;;29.29;44.59;99597.81;5111209;28;20031;-29
2022/08/17 07:37:35;;;;;;;9.85;5.78;;;;;;;29.46;43.53;99583.69;5109697;28;20032;-33
2022/08/17 07:40:21;;;;;;;7.20;5.32;;;;;;;29.34;42.31;99586.53;5109369;28;20403;-29
2022/08/17 07:43:19;;;;;;;8.63;5.57;;;;;;;29.58;42.51;99580.81;5110228;28;20040;-29
2022/08/17 07:48:42;;;;;;;10.18;5.88;;;;;;;30.04;40.94;99572.00;5110551;28;20043;-29
2022/08/17 07:51:17;;;;;;;10.50;5.40;;;;;;;30.24;41.69;99584.59;5109372;28;20471;-28
2022/08/17 07:53:44;;;;;;;10.15;6.00;;;;;;;30.36;42.37;99578.16;5109348;28;20028;-31
2022/08/17 07:56:09;;;;;;;10.30;6.40;;;;;;;30.52;41.77;99572.53;5110644;28;20024;-29
2022/08/17 07:58:35;;;;;;;8.07;4.88;;;;;;;30.74;38.75;99551.69;5110399;28;20062;-33
2022/08/17 08:01:17;;;;;;;8.15;5.00;;;;;;;31.23;38.88;99581.22;5111042;28;20080;-29
2022/08/17 08:03:44;;;;;;;8.98;5.22;;;;;;;31.43;37.57;99592.16;5110834;28;20027;-29
2022/08/17 08:06:23;;;;;;;9.00;5.20;;;;;;;31.29;36.34;99578.97;5109125;28;20081;-32
2022/08/17 08:08:54;;;;;;;8.48;5.43;;;;;;;31.06;37.92;99562.47;5110287;28;20123;-29
2022/08/17 08:11:35;;;;;;;9.48;5.05;;;;;;;31.46;36.83;99563.88;5108681;28;20047;-32
2022/08/17 08:14:20;;;;;;;8.38;5.05;;;;;;;31.77;37.31;99578.47;5108946;28;20379;-29
2022/08/17 08:17:04;;;;;;;8.68;5.43;;;;;;;31.56;37.30;99588.03;5110208;28;20034;-31
2022/08/17 08:19:30;;;;;;;10.27;5.18;;;;;;;31.50;37.50;99575.75;5108641;28;20020;-33
2022/08/17 08:22:15;;;;;;;7.88;5.25;;;;;;;31.51;38.33;99555.28;5108509;28;20105;-29
2022/08/17 08:25:06;;;;;;;10.23;5.32;;;;;;;31.89;36.72;99558.91;5108670;28;20126;-34
2022/08/17 08:27:35;;;;;;;7.78;5.07;;;;;;;31.91;35.42;99570.38;5107302;28;20031;-30
2022/08/17 08:30:07;;;;;;;7.28;4.80;;;;;;;31.84;36.06;99551.78;5109881;28;20028;-32
2022/08/17 08:32:44;;;;;;;7.63;5.55;;;;;;;31.74;35.66;99549.69;5109400;28;20027;-31
2022/08/17 08:35:21;;;;;;;8.68;5.00;;;;;;;32.00;34.41;99548.84;5108618;28;20060;-31
2022/08/17 08:37:56;;;;;;;;;;;;;;;32.32;33.46;99558.66;5109182;28;20031;-29
2022/08/17 08:40:40;;;;;;;6.82;4.50;;;;;;;32.37;33.83;99556.34;5109565;28;19911;-31
2022/08/17 08:43:17;;;;;;;7.30;4.95;;;;;;;32.18;34.74;99551.81;5109790;28;20039;-30
2022/08/17 08:45:51;;;;;;;7.20;5.80;;;;;;;32.22;34.66;99544.38;5108238;28;20058;-36
2022/08/17 08:48:32;;;;;;;9.05;6.03;;;;;;;32.31;33.21;99546.81;5109742;28;20028;-29
2022/08/17 08:51:04;;;;;;;8.73;5.40;;;;;;;32.24;33.83;99535.69;5109627;28;20493;-33
2022/08/17 08:53:51;;;;;;;9.30;5.10;;;;;;;32.68;33.16;99553.50;5109238;28;20078;-29
2022/08/17 08:56:25;;;;;;;9.90;4.93;;;;;;;32.72;32.81;99549.59;5109824;28;20035;-30
2022/08/17 08:59:22;;;;;;;7.85;5.60;;;;;;;32.60;33.07;99550.66;5109368;28;20098;-32
2022/08/17 09:01:47;;;;;;;6.30;5.10;;;;;;;32.71;32.67;99553.50;5107624;28;20024;-39
2022/08/17 09:04:12;;;;;;;6.88;5.07;;;;;;;32.92;33.69;99541.09;5109183;28;20044;-33
2022/08/17 09:07:22;;;;;;;10.57;4.90;;;;;;;33.25;32.39;99547.66;5109158;27;20617;-28
2022/08/17 09:10:05;;;;;;;8.48;5.50;;;;;;;33.18;31.81;99531.81;5074971;28;20053;-29
2022/08/17 09:12:42;;;;;;;8.43;4.90;;;;;;;33.19;31.56;99544.47;5107323;28;20020;-32
2022/08/17 09:15:19;;;;;;;8.93;4.95;;;;;;;32.90;31.30;99543.44;5109065;28;20032;-30
2022/08/17 09:17:56;;;;;;;7.72;4.38;;;;;;;33.27;30.84;99534.25;5107684;28;20055;-31
2022/08/17 09:20:47;;;;;;;9.18;4.93;;;;;;;33.53;30.81;99547.81;5107125;28;20036;-31
2022/08/17 09:23:33;;;;;;;10.13;4.65;;;;;;;33.73;31.70;99528.16;5107655;28;20027;-30
2022/08/17 09:26:05;;;;;;;7.78;4.35;;;;;;;34.16;29.95;99539.41;5108903;28;20065;-31
2022/08/17 09:28:36;;;;;;;7.57;4.32;;;;;;;34.21;29.53;99530.72;5107142;28;20042;-32
2022/08/17 09:31:17;;;;;;;7.60;4.43;;;;;;;34.27;28.58;99536.69;5108721;28;20054;-33
2022/08/17 09:33:47;;;;;;;9.25;5.03;;;;;;;34.07;29.13;99537.00;5107471;28;20047;-29
2022/08/17 09:36:21;;;;;;;8.82;4.88;;;;;;;34.08;27.97;99526.69;5108802;28;20065;-32
2022/08/17 09:39:18;;;;;;;8.65;4.90;;;;;;;34.17;27.98;99524.41;5106924;28;20108;-34
2022/08/17 09:41:54;;;;;;;7.88;4.75;;;;;;;34.41;26.96;99528.41;5108722;28;20020;-29
2022/08/17 09:44:34;;;;;;;8.13;5.28;;;;;;;34.60;27.29;99529.97;5106679;28;20119;-35
2022/08/17 09:47:04;;;;;;;8.25;5.10;;;;;;;34.89;27.82;99528.00;5108136;28;20119;-32
2022/08/17 09:49:36;;;;;;;7.38;4.15;;;;;;;34.79;27.29;99535.13;5108006;28;20510;-32
2022/08/17 09:52:14;;;;;;;7.53;5.03;;;;;;;34.51;26.38;99533.16;5107123;28;20084;-28
2022/08/17 09:54:40;;;;;;;9.75;5.70;;;;;;;34.70;27.25;99512.59;5108076;28;20847;-29
2022/08/17 09:57:24;;;;;;;8.48;5.03;;;;;;;34.93;25.62;99522.47;5106888;28;20047;-32
2022/08/17 10:00:11;;;;;;;7.47;5.18;;;;;;;34.79;26.49;99528.81;5106628;28;20085;-29
2022/08/17 10:03:18;;;;;;;6.45;5.18;;;;;;;34.66;25.96;99527.66;5106627;28;20092;-29
2022/08/17 10:05:58;;;;;;;8.35;4.95;;;;;;;34.83;25.54;99520.50;5106820;28;20076;-29
2022/08/17 10:08:29;;;;;;;9.25;5.70;;;;;;;35.36;25.41;99519.66;5106194;28;20024;-28
2022/08/17 10:11:06;;;;;;;8.38;6.40;;;;;;;34.90;25.74;99517.72;5107981;28;20063;-35
2022/08/17 10:13:58;;;;;;;9.75;6.60;;;;;;;35.16;25.05;99511.78;5106708;28;20032;-31
2022/08/17 10:16:29;;;;;;;9.45;6.50;;;;;;;35.29;25.47;99511.34;5103515;28;20067;-29
2022/08/17 10:19:32;;;;;;;8.77;6.22;;;;;;;35.58;24.98;99523.94;5106442;28;20040;-29
2022/08/17 10:27:43;;;;;;;8.27;5.45;;;;;;;35.24;23.53;99500.69;5107820;28;20084;-29
2022/08/17 10:30:12;;;;;;;7.93;5.00;;;;;;;35.36;23.90;99514.09;5107932;28;20119;-29
2022/08/17 10:32:45;;;;;;;8.50;4.85;;;;;;;35.44;24.04;99515.66;5106061;28;20082;-29
2022/08/17 10:35:17;;;;;;;7.30;5.25;;;;;;;35.51;23.47;99518.44;5107800;28;20108;-30
2022/08/17 10:37:59;;;;;;;7.53;5.00;;;;;;;35.80;24.28;99505.25;5106378;28;20070;-35
2022/08/17 10:40:31;;;;;;;7.70;4.68;;;;;;;35.63;23.26;99497.75;5105958;28;20027;-29
2022/08/17 10:43:33;;;;;;;7.00;4.70;;;;;;;35.60;23.08;99495.81;5106100;28;20027;-29
2022/08/17 10:46:17;;;;;;;10.85;5.35;;;;;;;35.56;24.00;99506.91;5105917;28;20091;-32
2022/08/17 10:48:43;;;;;;;6.28;4.50;;;;;;;35.60;24.25;99502.13;5105804;28;20028;-30
2022/08/17 10:51:36;;;;;;;8.27;4.68;;;;;;;35.63;23.61;99505.28;5106792;28;20044;-35
2022/08/17 10:54:23;;;;;;;7.35;4.88;;;;;;;35.97;21.92;99491.69;5105755;28;20468;-32
2022/08/17 10:56:50;;;;;;;7.50;3.92;;;;;;;36.21;23.10;99498.31;5107427;28;20035;-29
2022/08/17 10:59:34;;;;;;;6.82;4.53;;;;;;;36.13;23.03;99499.50;5106261;28;20039;-29
2022/08/17 11:01:59;;;;;;;8.23;4.53;;;;;;;35.78;23.80;99484.66;5107269;28;20456;-31
2022/08/17 11:04:57;;;;;;;5.88;4.35;;;;;;;35.82;23.85;99488.19;5107011;28;20023;-29
2022/08/17 11:07:57;;;;;;;7.60;4.60;;;;;;;36.16;22.94;99488.41;5062632;28;20056;-31
2022/08/17 11:10:31;;;;;;;9.20;5.45;;;;;;;36.14;23.00;99487.19;5105477;28;20148;-32
2022/08/17 11:13:16;;;;;;;6.28;4.32;;;;;;;36.42;22.84;99477.91;5106937;28;20414;-31
2022/08/17 11:16:20;;;;;;;6.03;4.00;;;;;;;36.66;20.96;99486.44;5107225;28;20114;-31
2022/08/17 11:19:10;;;;;;;6.75;4.10;;;;;;;36.74;21.37;99490.75;5105520;28;20028;-31
2022/08/17 11:21:53;;;;;;;8.82;4.53;;;;;;;37.13;23.84;99487.63;5107183;28;20028;-32
2022/08/17 11:24:46;;;;;;;7.95;4.28;;;;;;;37.57;20.17;99462.84;5106997;28;20069;-33
2022/08/17 11:27:26;;;;;;;7.28;4.18;;;;;;;37.86;19.17;99470.81;5105924;28;20032;-29
2022/08/17 11:29:54;;;;;;;6.20;3.75;;;;;;;38.06;20.65;99474.53;5105853;28;20066;-29
2022/08/17 11:32:36;;;;;;;7.40;3.83;;;;;;;37.90;20.64;99461.22;5106786;28;20032;-31
2022/08/17 11:35:12;;;;;;;7.20;4.15;;;;;;;37.63;20.69;99452.84;5105388;28;20724;-32
2022/08/17 11:38:04;;;;;;;6.20;3.95;;;;;;;37.75;20.23;99457.06;5105704;28;20032;-36
2022/08/17 11:40:45;;;;;;;6.13;3.70;;;;;;;37.93;20.33;99459.59;5102800;28;20054;-32
2022/08/17 11:43:29;;;;;;;6.28;3.83;;;;;;;38.20;20.24;99467.97;5106848;28;20031;-32
2022/08/17 11:51:32;;;;;;;5.70;3.72;;;;;;;37.99;18.94;99463.50;5106977;28;20054;-32
2022/08/17 11:52:46;;;;;;;7.28;3.85;;;;;;;37.37;19.94;99463.50;5106665;28;20130;-36
2022/08/17 11:55:34;;;;;;;5.63;3.80;;;;;;;37.67;19.89;99459.16;5105361;28;20073;-29
2022/08/17 11:58:05;;;;;;;5.60;3.50;;;;;;;37.74;20.00;99442.38;5105272;28;20035;-31
2022/08/17 12:00:48;;;;;;;7.15;3.40;;;;;;;37.52;19.80;99432.72;5104969;28;20062;-35
2022/08/17 12:03:25;;;;;;;7.60;3.83;;;;;;;38.01;19.81;99447.16;5110337;28;20491;-32
2022/08/17 12:06:02;;;;;;;5.43;3.80;;;;;;;38.57;21.28;99429.97;5108962;28;20020;-33
2022/08/17 12:08:32;;;;;;;7.03;3.72;;;;;;;38.26;19.61;99429.28;5108787;28;20085;-29
2022/08/17 12:11:10;;;;;;;8.00;4.00;;;;;;;38.24;19.82;99434.50;5108858;28;20027;-37
2022/08/17 12:13:56;;;;;;;4.95;3.78;;;;;;;38.45;19.62;99438.91;5109161;28;20031;-33
2022/08/17 12:16:22;;;;;;;6.03;3.60;;;;;;;38.34;19.69;99428.75;5110336;28;20122;-36
2022/08/17 12:18:56;;;;;;;5.82;3.13;;;;;;;37.94;19.91;99450.03;5110689;28;20092;-29
2022/08/17 12:21:29;;;;;;;5.75;3.67;;;;;;;37.81;19.79;99435.13;5108900;28;20051;-31
2022/08/17 12:23:57;;;;;;;8.55;4.20;;;;;;;38.06;19.31;99438.34;5108602;28;20038;-35
2022/08/17 12:26:34;;;;;;;5.68;3.92;;;;;;;37.84;19.13;99429.50;5110297;28;20020;-30